createdAt,value
2023-03-06T00:00:25.052Z,100.00
2023-03-06T00:02:52.388Z,100.00
2023-03-06T00:05:19.702Z,100.00
2023-03-06T00:07:46.598Z,100.00
2023-03-06T00:10:21.416Z,100.00
2023-03-06T00:12:48.143Z,100.00
2023-03-06T00:15:15.193Z,100.00
2023-03-06T00:17:41.879Z,100.00
2023-03-06T00:20:11.158Z,100.00
2023-03-06T00:22:38.297Z,100.00
2023-03-06T00:25:05.976Z,100.00
2023-03-06T00:27:33.219Z,100.00
2023-03-06T00:30:01.442Z,100.00
2023-03-06T00:32:29.162Z,100.00
2023-03-06T00:34:56.307Z,100.00
2023-03-06T00:37:24.860Z,100.00
2023-03-06T00:39:51.487Z,100.00
2023-03-06T00:42:19.270Z,100.00
2023-03-06T00:44:46.595Z,100.00
2023-03-06T00:47:13.970Z,100.00
2023-03-06T00:49:40.513Z,100.00
2023-03-06T00:52:07.240Z,100.00
2023-03-06T00:54:33.899Z,100.00
2023-03-06T00:57:00.597Z,100.00
2023-03-06T00:59:28.038Z,100.00
2023-03-06T01:01:55.220Z,100.00
2023-03-06T01:04:22.423Z,100.00
2023-03-06T01:06:49.249Z,100.00
2023-03-06T01:09:15.978Z,100.00
2023-03-06T01:11:42.770Z,100.00
2023-03-06T01:14:09.486Z,100.00
2023-03-06T01:16:36.161Z,100.00
2023-03-06T01:19:03.032Z,100.00
2023-03-06T01:21:29.768Z,100.00
2023-03-06T01:23:56.717Z,100.00
2023-03-06T01:26:23.504Z,100.00
2023-03-06T01:28:50.155Z,100.00
2023-03-06T01:31:16.792Z,100.00
2023-03-06T01:33:43.536Z,100.00
2023-03-06T01:36:12.308Z,100.00
2023-03-06T01:38:39.218Z,100.00
2023-03-06T01:41:06.251Z,100.00
2023-03-06T01:43:38.047Z,100.00
2023-03-06T01:46:34.137Z,100.00
2023-03-06T01:49:25.951Z,100.00
2023-03-06T01:52:14.720Z,100.00
2023-03-06T01:54:53.694Z,100.00
2023-03-06T01:57:31.478Z,100.00
2023-03-06T02:00:14.240Z,100.00
2023-03-06T02:02:42.919Z,100.00
2023-03-06T02:05:10.379Z,100.00
2023-03-06T02:07:38.020Z,100.00
2023-03-06T02:10:06.015Z,100.00
2023-03-06T02:12:32.964Z,100.00
2023-03-06T02:14:59.685Z,100.00
2023-03-06T02:17:27.070Z,100.00
2023-03-06T02:20:24.431Z,100.00
2023-03-06T02:23:28.636Z,100.00
2023-03-06T02:25:56.066Z,100.00
2023-03-06T02:28:23.980Z,100.00
2023-03-06T02:30:52.821Z,100.00
2023-03-06T02:33:22.359Z,100.00
2023-03-06T02:36:00.568Z,100.00
2023-03-06T02:38:37.705Z,100.00
2023-03-06T02:41:06.022Z,100.00
2023-03-06T02:43:38.346Z,100.00
2023-03-06T02:46:06.068Z,100.00
2023-03-06T02:48:32.816Z,100.00
2023-03-06T02:50:59.438Z,100.00
2023-03-06T02:53:26.191Z,100.00
2023-03-06T02:55:52.948Z,100.00
2023-03-06T02:58:21.180Z,100.00
2023-03-06T03:00:48.757Z,100.00
2023-03-06T03:03:15.526Z,100.00
2023-03-06T03:05:42.294Z,100.00
2023-03-06T03:08:08.975Z,100.00
2023-03-06T03:10:35.591Z,100.00
2023-03-06T03:13:02.333Z,100.00
2023-03-06T03:15:29.077Z,100.00
2023-03-06T03:17:55.851Z,100.00
2023-03-06T03:20:22.996Z,100.00
2023-03-06T03:22:51.130Z,100.00
2023-03-06T03:25:18.555Z,100.00
2023-03-06T03:27:45.473Z,100.00
2023-03-06T03:30:12.612Z,100.00
2023-03-06T03:32:39.279Z,100.00
2023-03-06T03:35:07.621Z,100.00
2023-03-06T03:37:35.196Z,100.00
2023-03-06T03:40:02.106Z,100.00
2023-03-06T03:42:28.946Z,100.00
2023-03-06T03:44:55.519Z,100.00
2023-03-06T03:47:22.143Z,100.00
2023-03-06T03:49:48.788Z,100.00
2023-03-06T03:52:15.501Z,100.00
2023-03-06T03:54:42.164Z,100.00
2023-03-06T03:57:08.917Z,100.00
2023-03-06T03:59:35.548Z,100.00
2023-03-06T04:02:05.021Z,100.00
2023-03-06T04:04:33.853Z,100.00
2023-03-06T04:07:01.003Z,100.00
2023-03-06T04:09:27.735Z,100.00
2023-03-06T04:11:54.443Z,100.00
2023-03-06T04:14:22.555Z,100.00
2023-03-06T04:16:49.223Z,100.00
2023-03-06T04:19:15.989Z,100.00
2023-03-06T04:21:42.676Z,100.00
2023-03-06T04:24:09.340Z,100.00
2023-03-06T04:26:36.309Z,100.00
2023-03-06T04:29:02.968Z,100.00
2023-03-06T04:31:29.890Z,100.00
2023-03-06T04:33:56.659Z,100.00
2023-03-06T04:36:31.600Z,100.00
2023-03-06T04:38:58.385Z,100.00
2023-03-06T04:41:25.340Z,100.00
2023-03-06T04:43:52.453Z,100.00
2023-03-06T04:46:19.145Z,100.00
2023-03-06T04:48:45.808Z,100.00
2023-03-06T04:51:13.602Z,100.00
2023-03-06T04:53:40.282Z,100.00
2023-03-06T04:56:07.473Z,100.00
2023-03-06T04:58:34.077Z,100.00
2023-03-06T05:01:02.471Z,100.00
2023-03-06T05:03:29.513Z,100.00
2023-03-06T05:05:56.187Z,100.00
2023-03-06T05:08:23.902Z,100.00
2023-03-06T05:10:56.508Z,100.00
2023-03-06T05:13:23.217Z,100.00
2023-03-06T05:15:49.837Z,100.00
2023-03-06T05:18:17.043Z,100.00
2023-03-06T05:20:43.806Z,100.00
2023-03-06T05:23:10.831Z,100.00
2023-03-06T05:25:40.939Z,100.00
2023-03-06T05:28:08.856Z,100.00
2023-03-06T05:30:35.926Z,100.00
2023-03-06T05:33:02.579Z,100.00
2023-03-06T05:35:29.308Z,100.00
2023-03-06T05:37:56.673Z,100.00
2023-03-06T05:40:23.246Z,100.00
2023-03-06T05:42:50.226Z,100.00
2023-03-06T05:45:16.861Z,100.00
2023-03-06T05:47:43.529Z,100.00
2023-03-06T05:50:11.291Z,100.00
2023-03-06T05:52:39.864Z,100.00
2023-03-06T05:55:10.087Z,100.00
2023-03-06T05:57:36.783Z,100.00
2023-03-06T06:00:04.126Z,100.00
2023-03-06T06:02:30.860Z,100.00
2023-03-06T06:04:57.687Z,100.00
2023-03-06T06:07:24.307Z,100.00
2023-03-06T06:09:53.496Z,100.00
2023-03-06T06:12:20.222Z,100.00
2023-03-06T06:14:46.863Z,100.00
2023-03-06T06:17:13.510Z,100.00
2023-03-06T06:19:40.110Z,100.00
2023-03-06T06:22:07.164Z,100.00
2023-03-06T06:24:33.917Z,100.00
2023-03-06T06:27:03.400Z,100.00
2023-03-06T06:29:30.589Z,100.00
2023-03-06T06:31:58.165Z,100.00
2023-03-06T06:34:25.656Z,100.00
2023-03-06T06:36:53.759Z,100.00
2023-03-06T06:39:22.991Z,100.00
2023-03-06T06:42:02.640Z,100.00
2023-03-06T06:44:32.487Z,100.00
2023-03-06T06:49:50.564Z,100.00
2023-03-06T06:52:19.017Z,100.00
2023-03-06T06:54:45.849Z,100.00
2023-03-06T06:57:12.794Z,100.00
2023-03-06T06:59:39.470Z,100.00
2023-03-06T07:02:06.325Z,100.00
2023-03-06T07:04:33.492Z,100.00
2023-03-06T07:07:01.660Z,100.00
2023-03-06T07:09:30.459Z,100.00
2023-03-06T07:11:57.564Z,100.00
2023-03-06T07:14:24.735Z,100.00
2023-03-06T07:16:51.437Z,100.00
2023-03-06T07:19:18.304Z,100.00
2023-03-06T07:21:45.028Z,100.00
2023-03-06T07:24:11.731Z,100.00
2023-03-06T07:26:38.493Z,100.00
2023-03-06T07:29:05.218Z,100.00
2023-03-06T07:31:32.390Z,100.00
2023-03-06T07:33:59.069Z,100.00
2023-03-06T07:36:25.701Z,100.00
2023-03-06T07:38:52.277Z,100.00
2023-03-06T07:41:22.212Z,100.00
2023-03-06T07:43:49.913Z,100.00
2023-03-06T07:46:17.298Z,100.00
2023-03-06T07:48:44.812Z,100.00
2023-03-06T07:51:19.709Z,100.00
2023-03-06T07:53:47.591Z,100.00
2023-03-06T07:56:14.418Z,100.00
2023-03-06T07:58:43.441Z,100.00
2023-03-06T08:01:13.064Z,100.00
2023-03-06T08:03:39.971Z,100.00
2023-03-06T08:06:17.854Z,100.00
2023-03-06T08:08:46.133Z,100.00
2023-03-06T08:11:15.302Z,100.00
2023-03-06T08:13:42.533Z,100.00
2023-03-06T08:16:09.876Z,100.00
2023-03-06T08:18:38.285Z,100.00
2023-03-06T08:21:13.141Z,100.00
2023-03-06T08:23:40.628Z,100.00
2023-03-06T08:26:11.079Z,100.00
2023-03-06T08:28:37.771Z,100.00
2023-03-06T08:31:21.784Z,100.00
2023-03-06T08:33:48.459Z,100.00
2023-03-06T08:36:15.447Z,100.00
2023-03-06T08:38:42.127Z,100.00
2023-03-06T08:41:08.951Z,100.00
2023-03-06T08:43:36.024Z,100.00
2023-03-06T08:46:02.991Z,100.00
2023-03-06T08:48:29.785Z,100.00
2023-03-06T08:50:56.487Z,100.00
2023-03-06T08:53:33.462Z,100.00
2023-03-06T08:56:08.804Z,100.00
2023-03-06T08:58:35.459Z,100.00
2023-03-06T09:01:03.893Z,100.00
2023-03-06T09:03:30.779Z,100.00
2023-03-06T09:05:57.496Z,100.00
2023-03-06T09:08:24.184Z,100.00
2023-03-06T09:10:50.953Z,100.00
2023-03-06T09:13:17.532Z,100.00
2023-03-06T09:15:44.176Z,100.00
2023-03-06T09:18:10.756Z,100.00
2023-03-06T09:20:37.422Z,100.00
2023-03-06T09:23:04.038Z,100.00
2023-03-06T09:25:31.308Z,100.00
2023-03-06T09:28:10.987Z,100.00
2023-03-06T09:30:40.633Z,100.00
2023-03-06T09:33:07.499Z,100.00
2023-03-06T09:35:34.142Z,100.00
2023-03-06T09:38:00.789Z,100.00
2023-03-06T09:40:42.873Z,100.00
2023-03-06T09:43:19.033Z,100.00
2023-03-06T09:45:45.858Z,100.00
2023-03-06T09:48:16.625Z,99.27
2023-03-06T09:50:53.277Z,98.41
2023-03-06T09:53:49.915Z,98.66
2023-03-06T09:56:20.395Z,96.90
2023-03-06T09:58:54.411Z,96.76
2023-03-06T10:01:25.278Z,97.03
2023-03-06T10:04:12.371Z,95.56
2023-03-06T10:06:48.622Z,94.61
2023-03-06T10:09:38.746Z,93.41
2023-03-06T10:12:24.301Z,94.84
2023-03-06T10:15:08.003Z,93.07
2023-03-06T10:17:38.051Z,90.99
2023-03-06T10:20:44.254Z,89.77
2023-03-06T10:23:47.011Z,89.53
2023-03-06T10:26:17.422Z,88.37
2023-03-06T10:28:54.468Z,91.06
2023-03-06T10:31:27.368Z,88.08
2023-03-06T10:34:43.810Z,87.97
2023-03-06T10:37:20.656Z,90.61
2023-03-06T10:39:52.693Z,89.23
2023-03-06T10:42:19.266Z,90.38
2023-03-06T10:44:46.144Z,90.42
2023-03-06T10:47:30.187Z,91.74
2023-03-06T10:49:59.609Z,92.47
2023-03-06T10:52:29.531Z,90.98
2023-03-06T10:55:24.056Z,91.45
2023-03-06T10:57:50.762Z,92.03
2023-03-06T11:00:29.780Z,88.95
2023-03-06T11:03:18.473Z,86.68
2023-03-06T11:05:56.496Z,87.02
2023-03-06T11:08:23.249Z,86.01
2023-03-06T11:10:58.265Z,88.85
2023-03-06T11:13:27.553Z,90.16
2023-03-06T11:16:19.703Z,91.04
2023-03-06T11:18:59.359Z,92.33
2023-03-06T11:21:32.104Z,92.47
2023-03-06T11:24:06.627Z,92.43
2023-03-06T11:26:38.145Z,92.33
2023-03-06T11:29:12.472Z,91.03
2023-03-06T11:31:45.003Z,90.77
2023-03-06T11:34:24.324Z,91.74
2023-03-06T11:37:16.967Z,88.38
2023-03-06T11:39:49.564Z,89.80
2023-03-06T11:42:20.632Z,91.09
2023-03-06T11:45:10.330Z,88.61
2023-03-06T11:47:54.668Z,89.74
2023-03-06T11:50:46.734Z,90.73
2023-03-06T11:53:15.926Z,90.61
2023-03-06T11:56:15.075Z,92.27
2023-03-06T11:59:01.330Z,93.40
2023-03-06T12:01:38.871Z,93.48
2023-03-06T12:04:39.620Z,92.85
2023-03-06T12:07:17.628Z,92.90
2023-03-06T12:13:50.159Z,92.51
2023-03-06T12:17:00.036Z,92.66
2023-03-06T12:19:31.152Z,91.95
2023-03-06T12:22:09.538Z,92.11
2023-03-06T12:25:22.913Z,92.40
2023-03-06T12:28:18.748Z,89.71
2023-03-06T12:31:25.054Z,88.96
2023-03-06T12:34:13.015Z,90.20
2023-03-06T12:37:02.571Z,90.25
2023-03-06T12:40:01.869Z,89.52
2023-03-06T12:42:48.319Z,89.28
2023-03-06T12:45:25.956Z,89.08
2023-03-06T12:47:56.698Z,88.64
2023-03-06T12:50:29.003Z,89.01
2023-03-06T12:52:58.920Z,89.00
2023-03-06T12:55:26.228Z,88.61
2023-03-06T12:57:54.047Z,89.29
2023-03-06T13:00:58.755Z,90.79
2023-03-06T13:03:54.650Z,90.97
2023-03-06T13:07:01.960Z,90.08
2023-03-06T13:10:05.012Z,90.79
2023-03-06T13:12:51.763Z,92.32
2023-03-06T13:15:41.622Z,94.21
2023-03-06T13:22:03.699Z,100.00
2023-03-06T13:24:35.741Z,100.00
2023-03-06T13:27:45.770Z,100.00
2023-03-06T13:30:43.591Z,100.00
2023-03-06T13:33:52.551Z,100.00
2023-03-06T13:36:30.619Z,100.00
2023-03-06T13:38:59.550Z,100.00
2023-03-06T13:41:33.312Z,100.00
2023-03-06T13:44:01.970Z,100.00
2023-03-06T13:46:31.531Z,100.00
2023-03-06T13:49:13.282Z,100.00
2023-03-06T13:52:09.474Z,100.00
2023-03-06T13:55:14.182Z,100.00
2023-03-06T13:58:10.251Z,100.00
2023-03-06T14:01:07.896Z,100.00
2023-03-06T14:04:01.680Z,100.00
2023-03-06T14:06:46.942Z,100.00
2023-03-06T14:09:32.019Z,100.00
2023-03-06T14:12:02.784Z,100.00
2023-03-06T14:14:36.360Z,100.00
2023-03-06T14:17:05.247Z,99.40
2023-03-06T14:19:37.507Z,99.49
2023-03-06T14:22:06.106Z,99.29
2023-03-06T14:24:42.503Z,98.19
2023-03-06T14:27:17.302Z,98.98
2023-03-06T14:29:44.689Z,99.70
2023-03-06T14:32:12.459Z,98.42
2023-03-06T14:34:41.215Z,97.08
2023-03-06T14:37:20.321Z,97.63
2023-03-06T14:39:47.153Z,95.84
2023-03-06T14:42:28.574Z,96.04
2023-03-06T14:45:03.687Z,93.94
2023-03-06T14:47:32.646Z,93.90
2023-03-06T14:50:27.956Z,94.38
2023-03-06T14:52:59.965Z,94.81
2023-03-06T14:55:28.679Z,95.44
2023-03-06T14:58:03.282Z,93.39
2023-03-06T15:00:35.814Z,94.42
2023-03-06T15:03:05.571Z,93.93
2023-03-06T15:05:32.751Z,93.39
2023-03-06T15:08:04.549Z,91.93
2023-03-06T15:10:33.541Z,93.53
2023-03-06T15:13:21.686Z,92.25
2023-03-06T15:16:15.798Z,92.16
2023-03-06T15:19:01.375Z,92.67
2023-03-06T15:21:31.438Z,92.59
2023-03-06T15:23:58.273Z,92.88
2023-03-06T15:26:31.631Z,93.34
2023-03-06T15:29:31.045Z,93.07
2023-03-06T15:32:25.475Z,92.58
2023-03-06T15:35:30.242Z,92.79
2023-03-06T15:37:57.606Z,93.83
2023-03-06T15:40:26.714Z,92.96
2023-03-06T15:42:53.462Z,92.83
2023-03-06T15:45:22.379Z,91.90
2023-03-06T15:47:51.097Z,91.86
2023-03-06T15:50:23.724Z,90.23
2023-03-06T15:52:50.427Z,90.94
2023-03-06T15:55:19.754Z,91.69
2023-03-06T15:58:05.014Z,91.75
2023-03-06T16:00:34.402Z,92.32
2023-03-06T16:03:02.342Z,91.08
2023-03-06T16:05:29.370Z,91.48
2023-03-06T16:07:56.465Z,91.17
2023-03-06T16:10:25.873Z,90.73
2023-03-06T16:12:55.795Z,90.95
2023-03-06T16:15:29.289Z,91.36
2023-03-06T16:17:57.008Z,92.02
2023-03-06T16:20:25.717Z,91.73
2023-03-06T16:22:53.964Z,90.52
2023-03-06T16:25:21.716Z,91.31
2023-03-06T16:27:55.586Z,92.15
2023-03-06T16:30:24.382Z,92.12
2023-03-06T16:32:51.035Z,92.39
2023-03-06T16:35:18.694Z,93.17
2023-03-06T16:37:52.224Z,93.50
2023-03-06T16:40:22.648Z,93.75
2023-03-06T16:42:50.332Z,94.38
2023-03-06T16:45:18.312Z,94.45
2023-03-06T16:47:46.388Z,94.21
2023-03-06T16:50:27.514Z,94.57
2023-03-06T16:52:55.638Z,94.77
2023-03-06T16:55:23.803Z,95.14
2023-03-06T16:57:50.746Z,96.33
2023-03-06T17:00:18.818Z,96.32
2023-03-06T17:02:47.620Z,95.83
2023-03-06T17:05:14.540Z,96.17
2023-03-06T17:07:41.566Z,97.17
2023-03-06T17:10:11.067Z,97.34
2023-03-06T17:12:37.753Z,98.14
2023-03-06T17:15:06.127Z,98.03
2023-03-06T17:17:32.981Z,99.02
2023-03-06T17:19:59.846Z,98.82
2023-03-06T17:22:27.544Z,99.08
2023-03-06T17:24:54.469Z,99.04
2023-03-06T17:27:22.381Z,98.96
2023-03-06T17:29:49.004Z,99.37
2023-03-06T17:32:15.809Z,99.59
2023-03-06T17:34:42.837Z,98.81
2023-03-06T17:37:09.508Z,98.61
2023-03-06T17:39:37.657Z,98.94
2023-03-06T17:42:05.643Z,98.67
2023-03-06T17:44:34.123Z,98.69
2023-03-06T17:47:01.470Z,99.39
2023-03-06T17:49:28.238Z,99.34
2023-03-06T17:51:56.790Z,99.44
2023-03-06T17:54:26.217Z,100.00
2023-03-06T17:57:01.119Z,100.00
2023-03-06T17:59:28.320Z,100.00
2023-03-06T18:01:58.879Z,100.00
2023-03-06T18:04:25.737Z,100.00
2023-03-06T18:06:52.476Z,100.00
2023-03-06T18:09:19.383Z,100.00
2023-03-06T18:11:45.971Z,100.00
2023-03-06T18:14:12.581Z,100.00
2023-03-06T18:16:39.236Z,100.00
2023-03-06T18:19:05.905Z,100.00
2023-03-06T18:21:32.558Z,100.00
2023-03-06T18:23:59.309Z,100.00
2023-03-06T18:26:28.212Z,100.00
2023-03-06T18:29:01.642Z,100.00
2023-03-06T18:31:33.761Z,100.00
2023-03-06T18:34:03.709Z,100.00
2023-03-06T18:36:32.077Z,100.00
2023-03-06T18:39:00.893Z,100.00
2023-03-06T18:41:27.562Z,100.00
2023-03-06T18:43:55.905Z,100.00
2023-03-06T18:46:23.387Z,100.00
2023-03-06T18:48:50.393Z,100.00
2023-03-06T18:51:18.050Z,100.00
2023-03-06T18:53:44.875Z,100.00
2023-03-06T18:56:16.880Z,100.00
2023-03-06T18:58:44.529Z,100.00
2023-03-06T19:01:12.208Z,100.00
2023-03-06T19:03:38.950Z,100.00
2023-03-06T19:06:08.094Z,100.00
2023-03-06T19:08:36.093Z,100.00
2023-03-06T19:11:08.012Z,100.00
2023-03-06T19:13:34.816Z,100.00
2023-03-06T19:16:02.030Z,100.00
2023-03-06T19:18:31.060Z,100.00
2023-03-06T19:21:11.447Z,100.00
2023-03-06T19:23:38.205Z,100.00
2023-03-06T19:26:05.326Z,100.00
2023-03-06T19:28:32.665Z,100.00
2023-03-06T19:31:00.486Z,100.00
2023-03-06T19:33:27.179Z,100.00
2023-03-06T19:35:56.231Z,100.00
2023-03-06T19:38:23.039Z,100.00
2023-03-06T19:40:50.716Z,100.00
2023-03-06T19:43:17.491Z,100.00
2023-03-06T19:45:44.874Z,100.00
2023-03-06T19:48:12.656Z,100.00
2023-03-06T19:50:40.513Z,100.00
2023-03-06T19:53:08.288Z,100.00
2023-03-06T19:55:35.054Z,100.00
2023-03-06T19:58:02.118Z,100.00
2023-03-06T20:00:28.942Z,100.00
2023-03-06T20:02:56.241Z,100.00
2023-03-06T20:05:22.984Z,100.00
2023-03-06T20:07:50.179Z,100.00
2023-03-06T20:10:17.591Z,100.00
2023-03-06T20:12:44.546Z,100.00
2023-03-06T20:15:11.427Z,100.00
2023-03-06T20:17:40.747Z,100.00
2023-03-06T20:20:10.842Z,100.00
2023-03-06T20:22:37.720Z,100.00
2023-03-06T20:25:05.244Z,100.00
2023-03-06T20:27:32.944Z,100.00
2023-03-06T20:29:59.790Z,100.00
2023-03-06T20:32:26.955Z,100.00
2023-03-06T20:34:53.564Z,100.00
2023-03-06T20:37:20.126Z,100.00
2023-03-06T20:39:47.002Z,100.00
2023-03-06T20:42:13.639Z,100.00
2023-03-06T20:44:40.297Z,100.00
2023-03-06T20:47:06.897Z,100.00
2023-03-06T20:49:33.532Z,100.00
2023-03-06T20:52:00.164Z,100.00
2023-03-06T20:54:26.788Z,100.00
2023-03-06T20:56:53.417Z,100.00
2023-03-06T20:59:20.216Z,100.00
2023-03-06T21:01:48.149Z,100.00
2023-03-06T21:04:15.517Z,100.00
2023-03-06T21:06:46.744Z,100.00
2023-03-06T21:09:16.279Z,100.00
2023-03-06T21:11:42.939Z,100.00
2023-03-06T21:14:09.800Z,100.00
2023-03-06T21:16:36.574Z,100.00
2023-03-06T21:19:03.851Z,100.00
2023-03-06T21:21:33.506Z,100.00
2023-03-06T21:24:01.106Z,100.00
2023-03-06T21:26:33.938Z,100.00
2023-03-06T21:29:01.712Z,100.00
2023-03-06T21:31:28.920Z,100.00
2023-03-06T21:33:56.438Z,100.00
2023-03-06T21:36:23.831Z,100.00
2023-03-06T21:38:52.376Z,100.00
2023-03-06T21:41:24.945Z,100.00
2023-03-06T21:43:59.252Z,100.00
2023-03-06T21:46:26.864Z,100.00
2023-03-06T21:48:53.840Z,100.00
2023-03-06T21:51:23.778Z,100.00
2023-03-06T21:53:51.173Z,100.00
2023-03-06T21:56:19.357Z,100.00
2023-03-06T21:58:46.063Z,100.00
2023-03-06T22:01:16.266Z,100.00
2023-03-06T22:03:43.119Z,100.00
2023-03-06T22:06:15.374Z,100.00
2023-03-06T22:08:42.745Z,100.00
2023-03-06T22:11:15.021Z,100.00
2023-03-06T22:13:41.864Z,100.00
2023-03-06T22:16:08.888Z,100.00
2023-03-06T22:18:36.240Z,100.00
2023-03-06T22:21:10.202Z,100.00
2023-03-06T22:23:37.131Z,100.00
2023-03-06T22:26:09.417Z,100.00
2023-03-06T22:28:36.365Z,100.00
2023-03-06T22:31:05.372Z,100.00
2023-03-06T22:33:31.998Z,100.00
2023-03-06T22:36:05.492Z,100.00
2023-03-06T22:38:33.858Z,100.00
2023-03-06T22:41:00.887Z,100.00
2023-03-06T22:43:27.748Z,100.00
2023-03-06T22:45:54.522Z,100.00
2023-03-06T22:48:21.300Z,100.00
2023-03-06T22:50:47.943Z,100.00
2023-03-06T22:53:14.568Z,100.00
2023-03-06T22:55:41.463Z,100.00
2023-03-06T22:58:08.185Z,100.00
2023-03-06T23:00:35.232Z,100.00
2023-03-06T23:03:02.220Z,100.00
2023-03-06T23:05:29.568Z,100.00
2023-03-06T23:07:56.360Z,100.00
2023-03-06T23:10:23.087Z,100.00
2023-03-06T23:12:49.691Z,100.00
2023-03-06T23:15:16.360Z,100.00
2023-03-06T23:17:43.041Z,100.00
2023-03-06T23:20:10.412Z,100.00
2023-03-06T23:22:37.340Z,100.00
2023-03-06T23:25:04.551Z,99.90
2023-03-06T23:27:31.366Z,99.08
2023-03-06T23:29:59.231Z,98.38
2023-03-06T23:32:26.199Z,98.75
2023-03-06T23:34:52.859Z,97.54
2023-03-06T23:37:19.544Z,97.77
2023-03-06T23:39:46.146Z,97.69
2023-03-06T23:42:12.744Z,97.89
2023-03-06T23:44:39.601Z,97.38
2023-03-06T23:47:06.236Z,97.59
2023-03-06T23:49:33.037Z,96.85
2023-03-06T23:51:59.721Z,96.70
2023-03-06T23:54:26.454Z,96.66
2023-03-06T23:56:53.070Z,96.47
2023-03-06T23:59:19.702Z,96.95
